Time;durP1;ratioP1;P1;durP2;ratioP2;P2;SDS_P1;SDS_P2;PMS_P1;PMS_P2;Temp;Humidity;BMP_temperature;BMP_pressure;BME280_temperature;BME280_humidity;BME280_pressure;Samples;Min_cycle;Max_cycle;Signal;HPM_P1;HPM_P2
2022/03/05 00:02:25;;;;;;;19.53;9.30;;;0.10;83.80;;;;;;5085920;28;20277;-69
2022/03/05 00:04:53;;;;;;;18.37;9.00;;;0.00;44.70;;;;;;5091556;28;20647;-68
2022/03/05 00:07:21;;;;;;;21.17;9.47;;;0.00;98.80;;;;;;5090770;28;20252;-68
2022/03/05 00:09:48;;;;;;;19.30;8.97;;;-0.10;99.90;;;;;;5084709;28;20334;-69
2022/03/05 00:12:15;;;;;;;20.43;8.43;;;-0.10;99.90;;;;;;5088123;28;20193;-69
2022/03/05 00:14:42;;;;;;;19.33;8.33;;;-0.20;1.00;;;;;;5088520;28;20637;-69
2022/03/05 00:17:09;;;;;;;19.17;9.83;;;-0.20;1.00;;;;;;5083987;28;20206;-69
2022/03/05 00:19:36;;;;;;;16.50;8.37;;;-0.20;1.00;;;;;;5082471;28;20211;-69
2022/03/05 00:22:05;;;;;;;19.13;9.20;;;-0.20;1.00;;;;;;5091615;28;20596;-69
2022/03/05 00:24:32;;;;;;;18.57;8.93;;;-0.20;1.00;;;;;;5088518;28;20567;-69
2022/03/05 00:26:59;;;;;;;19.73;9.17;;;-0.20;1.00;;;;;;5090378;28;20713;-69
2022/03/05 00:29:26;;;;;;;17.97;8.73;;;-0.20;1.00;;;;;;5088736;28;20222;-69
2022/03/05 00:31:53;;;;;;;21.30;9.70;;;-0.20;1.00;;;;;;5089218;28;20202;-69
2022/03/05 00:34:20;;;;;;;24.20;9.63;;;-0.20;1.00;;;;;;5087523;28;20217;-69
2022/03/05 00:36:47;;;;;;;21.03;9.23;;;-0.20;1.00;;;;;;5088714;28;20259;-69
2022/03/05 00:39:15;;;;;;;21.10;9.60;;;-0.20;1.00;;;;;;5082755;28;20229;-69
2022/03/05 00:41:42;;;;;;;22.23;10.03;;;-0.30;1.00;;;;;;5079207;28;20201;-69
2022/03/05 00:44:09;;;;;;;21.17;10.33;;;-0.30;1.00;;;;;;5089567;28;20197;-69
2022/03/05 00:46:36;;;;;;;18.77;9.13;;;-0.40;1.00;;;;;;5086474;28;20197;-69
2022/03/05 00:49:04;;;;;;;21.17;9.47;;;-0.40;1.00;;;;;;5087076;28;20225;-69
2022/03/05 00:51:31;;;;;;;21.03;9.07;;;-0.50;1.00;;;;;;5092189;28;20256;-69
2022/03/05 00:53:58;;;;;;;20.87;9.50;;;-0.50;1.00;;;;;;5093143;28;20679;-69
2022/03/05 00:56:27;;;;;;;21.20;9.87;;;-0.50;1.00;;;;;;5088931;28;20652;-69
2022/03/05 00:58:54;;;;;;;18.93;8.67;;;-0.60;1.00;;;;;;5086286;28;20233;-69
2022/03/05 01:01:21;;;;;;;19.50;8.93;;;-0.50;1.00;;;;;;5080394;28;20703;-69
2022/03/05 01:03:48;;;;;;;22.40;9.60;;;-0.60;1.00;;;;;;5088438;28;20201;-69
2022/03/05 01:06:15;;;;;;;20.93;9.40;;;-0.60;1.00;;;;;;5089644;28;20247;-69
2022/03/05 01:08:41;;;;;;;18.70;9.37;;;-0.60;1.00;;;;;;5086347;28;20798;-69
2022/03/05 01:11:09;;;;;;;21.53;10.53;;;-0.60;1.00;;;;;;5087194;28;20680;-69
2022/03/05 01:13:38;;;;;;;23.10;9.83;;;-0.80;1.00;;;;;;5087085;28;20206;-69
2022/03/05 01:16:05;;;;;;;19.03;9.23;;;-0.80;1.00;;;;;;5090169;28;20209;-68
2022/03/05 01:18:32;;;;;;;21.33;8.80;;;-0.80;1.00;;;;;;5086866;28;20201;-68
2022/03/05 01:20:59;;;;;;;21.03;9.97;;;-0.80;1.00;;;;;;5084655;28;20202;-68
2022/03/05 01:23:26;;;;;;;21.80;9.97;;;-0.80;1.00;;;;;;5093907;28;20198;-69
2022/03/05 01:25:53;;;;;;;22.57;9.97;;;-0.70;1.00;;;;;;5082436;28;20202;-69
2022/03/05 01:28:20;;;;;;;20.50;9.80;;;-0.60;1.00;;;;;;5083851;28;20252;-68
2022/03/05 01:30:49;;;;;;;21.90;9.83;;;-0.40;1.00;;;;;;5088494;28;20264;-68
2022/03/05 01:33:17;;;;;;;22.97;10.27;;;-0.50;1.00;;;;;;5085599;28;20199;-69
2022/03/05 01:35:44;;;;;;;22.53;10.10;;;-0.50;1.00;;;;;;5087973;28;20236;-68
2022/03/05 01:38:11;;;;;;;23.30;10.53;;;-0.60;1.00;;;;;;5091090;28;20201;-68
2022/03/05 01:40:38;;;;;;;21.90;9.67;;;-0.40;41.40;;;;;;5092462;28;20274;-68
2022/03/05 01:43:06;;;;;;;22.97;10.07;;;-0.50;23.70;;;;;;5084816;28;20240;-68
2022/03/05 01:45:33;;;;;;;21.83;10.17;;;-0.50;11.80;;;;;;5087456;28;20201;-68
2022/03/05 01:48:02;;;;;;;22.57;10.67;;;-0.50;26.10;;;;;;5085587;28;20201;-68
2022/03/05 01:50:29;;;;;;;22.43;9.60;;;-0.70;1.00;;;;;;5085845;28;20217;-69
2022/03/05 01:52:56;;;;;;;20.00;9.77;;;-0.60;31.20;;;;;;5086486;28;20721;-68
2022/03/05 01:55:24;;;;;;;23.27;11.57;;;-0.60;30.00;;;;;;5089233;28;20240;-68
2022/03/05 01:57:51;;;;;;;26.07;11.37;;;-0.50;54.30;;;;;;5086739;28;20202;-68
2022/03/05 02:00:20;;;;;;;23.07;10.47;;;-0.60;3.10;;;;;;5088521;28;20201;-68
2022/03/05 02:02:47;;;;;;;25.43;10.17;;;-0.60;41.70;;;;;;5088231;28;20644;-69
2022/03/05 02:05:15;;;;;;;24.63;11.17;;;-0.60;48.50;;;;;;5081813;28;20194;-68
2022/03/05 02:07:43;;;;;;;20.57;9.83;;;-0.50;99.90;;;;;;5084113;28;20709;-68
2022/03/05 02:10:11;;;;;;;23.90;10.33;;;-0.40;99.90;;;;;;5094713;28;20612;-69
2022/03/05 02:12:39;;;;;;;25.20;10.27;;;-0.60;84.10;;;;;;5095003;28;20195;-68
2022/03/05 02:15:08;;;;;;;21.27;9.67;;;-0.80;35.80;;;;;;5099897;28;20240;-68
2022/03/05 02:17:35;;;;;;;19.87;9.37;;;-0.90;53.90;;;;;;5101554;28;20207;-68
2022/03/05 02:20:04;;;;;;;23.20;11.10;;;-0.90;66.00;;;;;;5103741;28;20241;-69
2022/03/05 02:22:33;;;;;;;23.47;10.23;;;-1.00;82.90;;;;;;5095491;28;20259;-68
2022/03/05 02:25:02;;;;;;;23.17;10.83;;;-0.80;99.90;;;;;;5093125;28;20193;-69
2022/03/05 02:27:30;;;;;;;26.00;11.47;;;-0.80;99.90;;;;;;5092928;28;20641;-68
2022/03/05 02:29:58;;;;;;;21.87;10.17;;;-0.90;98.30;;;;;;5093028;28;20631;-68
2022/03/05 02:32:25;;;;;;;25.33;11.60;;;-1.00;99.90;;;;;;5104138;28;20639;-69
2022/03/05 02:34:53;;;;;;;24.27;12.07;;;-1.10;90.60;;;;;;5097072;28;20259;-68
2022/03/05 02:37:21;;;;;;;26.10;11.40;;;-1.10;96.70;;;;;;5092718;28;20194;-68
2022/03/05 02:39:50;;;;;;;26.17;11.93;;;-1.20;90.20;;;;;;5094143;28;20676;-68
2022/03/05 02:42:17;;;;;;;24.40;11.70;;;-1.20;85.60;;;;;;5100007;28;20564;-68
2022/03/05 02:44:45;;;;;;;23.23;11.27;;;-1.20;80.10;;;;;;5097392;28;20256;-68
2022/03/05 02:47:12;;;;;;;20.67;9.67;;;-1.20;94.70;;;;;;5092265;28;20319;-68
2022/03/05 02:49:39;;;;;;;24.60;10.47;;;-1.30;99.90;;;;;;5094421;28;20636;-68
2022/03/05 02:52:07;;;;;;;25.20;11.73;;;-1.20;99.90;;;;;;5104945;28;20257;-68
2022/03/05 02:54:35;;;;;;;21.83;10.10;;;-1.10;99.90;;;;;;5076801;28;20639;-68
2022/03/05 02:57:04;;;;;;;22.93;10.53;;;-1.30;99.90;;;;;;5078107;28;20247;-68
2022/03/05 02:59:31;;;;;;;24.27;10.67;;;-1.50;99.90;;;;;;5103714;28;20283;-68
2022/03/05 03:01:58;;;;;;;25.03;10.70;;;-1.50;99.90;;;;;;5110317;28;20658;-68
2022/03/05 03:04:25;;;;;;;24.50;11.47;;;-1.20;99.90;;;;;;5096189;28;20813;-68
2022/03/05 03:06:52;;;;;;;22.43;9.73;;;-1.10;99.90;;;;;;5104215;28;20282;-68
2022/03/05 03:09:19;;;;;;;23.00;10.43;;;-1.30;99.90;;;;;;5102965;28;20232;-68
2022/03/05 03:11:46;;;;;;;23.87;10.43;;;-1.40;99.90;;;;;;5100211;28;20556;-68
2022/03/05 03:14:14;;;;;;;24.77;10.70;;;-1.40;99.90;;;;;;5102798;28;20197;-69
2022/03/05 03:16:41;;;;;;;27.23;11.13;;;-1.30;99.90;;;;;;5114072;28;20607;-68
2022/03/05 03:19:08;;;;;;;22.97;11.13;;;-1.20;99.90;;;;;;5108928;28;20197;-68
2022/03/05 03:21:35;;;;;;;26.57;12.10;;;-1.10;99.90;;;;;;5093686;28;20202;-68
2022/03/05 03:24:02;;;;;;;28.27;11.77;;;-1.20;99.90;;;;;;5094799;28;20202;-68
2022/03/05 03:26:29;;;;;;;23.00;10.90;;;-1.10;99.90;;;;;;5107260;28;20210;-68
2022/03/05 03:28:56;;;;;;;24.07;12.17;;;-1.10;99.90;;;;;;5093097;28;20444;-68
2022/03/05 03:31:26;;;;;;;24.90;10.93;;;-1.10;99.90;;;;;;5105052;28;20304;-68
2022/03/05 03:33:53;;;;;;;28.20;13.40;;;-1.20;99.90;;;;;;5105348;28;20652;-68
2022/03/05 03:36:20;;;;;;;23.30;11.20;;;-1.20;99.90;;;;;;5093715;28;20205;-68
2022/03/05 03:38:47;;;;;;;28.33;12.90;;;-1.10;99.90;;;;;;5106925;28;20240;-68
2022/03/05 03:41:14;;;;;;;26.43;12.33;;;-1.10;99.90;;;;;;5112056;28;20208;-68
2022/03/05 03:43:41;;;;;;;28.60;11.87;;;-1.30;99.90;;;;;;5093239;28;20655;-68
2022/03/05 03:46:08;;;;;;;24.63;11.50;;;-1.50;99.90;;;;;;5108254;28;20601;-68
2022/03/05 03:48:37;;;;;;;23.37;11.00;;;-1.60;99.90;;;;;;5108331;28;20273;-68
2022/03/05 03:51:04;;;;;;;23.17;10.57;;;-1.90;96.80;;;;;;5094506;28;20217;-68
2022/03/05 03:53:31;;;;;;;24.37;11.00;;;-1.90;91.70;;;;;;5110449;28;20210;-68
2022/03/05 03:56:00;;;;;;;24.60;11.67;;;-1.90;99.90;;;;;;5110548;28;20660;-69
2022/03/05 03:58:27;;;;;;;23.83;11.43;;;-1.70;99.90;;;;;;5104561;28;20640;-68
2022/03/05 04:00:54;;;;;;;27.77;12.23;;;-1.50;99.90;;;;;;5092977;28;20206;-68
2022/03/05 04:03:20;;;;;;;27.67;11.50;;;-1.50;99.90;;;;;;5092997;28;20663;-68
2022/03/05 04:05:49;;;;;;;21.87;9.80;;;-1.60;99.90;;;;;;5110443;28;20250;-68
2022/03/05 04:11:01;;;;;;;32.70;12.23;;;-1.50;99.90;;;;;;5092094;28;20228;-68
2022/03/05 04:13:28;;;;;;;26.97;12.47;;;-1.40;99.90;;;;;;5102663;28;20205;-68
2022/03/05 04:15:56;;;;;;;27.20;11.90;;;-1.40;99.90;;;;;;5111615;28;20296;-68
2022/03/05 04:18:23;;;;;;;27.00;11.67;;;-1.40;99.90;;;;;;5098262;28;20217;-68
2022/03/05 04:20:51;;;;;;;22.50;11.37;;;-1.60;99.90;;;;;;5108928;28;20281;-68
2022/03/05 04:23:18;;;;;;;26.57;10.27;;;-1.70;99.90;;;;;;5091956;28;20197;-68
2022/03/05 04:25:46;;;;;;;25.37;11.33;;;-1.80;99.90;;;;;;5093602;28;20242;-68
2022/03/05 04:28:13;;;;;;;26.63;11.43;;;-1.80;99.90;;;;;;5108368;28;20208;-68
2022/03/05 04:30:40;;;;;;;25.30;11.27;;;-1.60;99.90;;;;;;5091061;28;20259;-72
2022/03/05 04:33:07;;;;;;;24.73;11.93;;;-1.50;99.90;;;;;;5085767;28;20206;-72
2022/03/05 04:35:34;;;;;;;27.90;12.43;;;-1.50;99.90;;;;;;5070948;28;20214;-71
2022/03/05 04:38:03;;;;;;;28.27;11.73;;;-1.50;99.90;;;;;;5108266;28;20604;-71
2022/03/05 04:40:30;;;;;;;26.10;10.97;;;-1.70;99.90;;;;;;5110535;28;20194;-71
2022/03/05 04:42:57;;;;;;;24.50;11.07;;;-1.60;99.90;;;;;;5110975;28;20197;-68
2022/03/05 04:45:24;;;;;;;27.20;11.47;;;-1.60;99.90;;;;;;5101855;28;20205;-68
2022/03/05 04:47:51;;;;;;;27.33;11.93;;;-1.90;99.90;;;;;;5111901;28;20687;-69
2022/03/05 04:50:18;;;;;;;25.73;11.63;;;-2.00;99.90;;;;;;5110471;28;20197;-68
2022/03/05 04:52:47;;;;;;;26.50;10.67;;;-1.70;99.90;;;;;;5097256;28;20426;-68
2022/03/05 04:55:15;;;;;;;27.77;12.23;;;-1.70;99.90;;;;;;5105613;28;20202;-68
2022/03/05 04:57:42;;;;;;;26.50;12.33;;;-1.60;99.90;;;;;;5093029;28;20193;-68
2022/03/05 05:00:11;;;;;;;26.93;11.50;;;-1.60;99.90;;;;;;5109663;28;20618;-68
2022/03/05 05:02:38;;;;;;;27.90;11.80;;;-1.70;99.90;;;;;;5109472;28;20201;-68
2022/03/05 05:05:06;;;;;;;25.27;11.57;;;-1.60;99.90;;;;;;5097098;28;20586;-69
2022/03/05 05:07:33;;;;;;;25.80;11.90;;;-1.70;99.90;;;;;;5111107;28;20200;-69
2022/03/05 05:10:00;;;;;;;25.77;12.13;;;-1.80;99.90;;;;;;5099225;28;20709;-68
2022/03/05 05:12:28;;;;;;;26.47;11.17;;;-1.90;99.90;;;;;;5091851;28;20229;-66
2022/03/05 05:14:55;;;;;;;24.77;10.90;;;-1.80;99.90;;;;;;5106915;28;20197;-66
2022/03/05 05:17:22;;;;;;;24.47;11.63;;;-1.90;99.90;;;;;;5092843;28;20255;-66
2022/03/05 05:19:49;;;;;;;25.83;11.20;;;-1.90;99.90;;;;;;5110766;28;20194;-66
2022/03/05 05:22:16;;;;;;;26.40;12.17;;;-1.60;99.90;;;;;;5110553;28;20658;-71
2022/03/05 05:24:43;;;;;;;29.60;12.70;;;-1.50;99.90;;;;;;5110879;28;20586;-71
2022/03/05 05:27:10;;;;;;;27.73;12.03;;;-1.50;99.90;;;;;;5111635;28;20273;-67
2022/03/05 05:29:39;;;;;;;26.77;12.17;;;-1.60;99.90;;;;;;5091081;28;20193;-67
2022/03/05 05:32:07;;;;;;;28.53;11.27;;;-1.70;99.90;;;;;;5091345;28;20314;-67
2022/03/05 05:34:34;;;;;;;26.37;11.93;;;-1.70;99.90;;;;;;5090600;28;20554;-68
2022/03/05 05:37:01;;;;;;;25.00;11.20;;;-1.50;99.90;;;;;;5096631;28;20940;-68
2022/03/05 05:39:28;;;;;;;25.53;11.20;;;-1.60;99.90;;;;;;5098513;28;20201;-69
2022/03/05 05:41:56;;;;;;;24.90;11.80;;;-1.90;99.90;;;;;;5106491;28;20213;-68
2022/03/05 05:44:23;;;;;;;26.07;11.13;;;-1.90;99.90;;;;;;5099782;28;20198;-68
2022/03/05 05:46:51;;;;;;;26.60;11.90;;;-1.90;99.90;;;;;;5092786;28;20254;-68
2022/03/05 05:49:18;;;;;;;25.67;10.77;;;-1.90;99.90;;;;;;5098448;28;20653;-68
2022/03/05 05:51:45;;;;;;;23.97;11.23;;;-1.90;99.90;;;;;;5102052;28;20267;-68
2022/03/05 05:54:12;;;;;;;25.63;10.77;;;-1.90;99.90;;;;;;5093833;28;20197;-68
2022/03/05 05:56:39;;;;;;;24.03;11.13;;;-2.00;99.90;;;;;;5105048;28;20626;-71
2022/03/05 05:59:06;;;;;;;25.17;11.40;;;-2.10;99.90;;;;;;5110764;28;20201;-69
2022/03/05 06:01:33;;;;;;;24.23;10.60;;;-2.10;99.90;;;;;;5104165;28;20205;-68
2022/03/05 06:04:01;;;;;;;26.93;11.17;;;-2.00;99.90;;;;;;5115435;28;20193;-68
2022/03/05 06:06:28;;;;;;;26.17;11.63;;;-2.20;99.90;;;;;;5099274;28;20204;-68
2022/03/05 06:08:55;;;;;;;27.07;11.63;;;-2.00;99.90;;;;;;5088449;28;20193;-69
2022/03/05 06:11:22;;;;;;;28.77;13.80;;;-2.10;99.90;;;;;;5097247;28;20706;-69
2022/03/05 06:13:49;;;;;;;28.53;11.80;;;-2.10;99.90;;;;;;5084595;28;20272;-68
2022/03/05 06:16:15;;;;;;;23.67;11.20;;;-2.10;99.90;;;;;;5091218;28;20593;-69
2022/03/05 06:18:43;;;;;;;25.93;12.40;;;-2.20;99.90;;;;;;5091784;28;20229;-68
2022/03/05 06:21:11;;;;;;;26.57;12.10;;;-2.10;99.90;;;;;;5095314;28;20202;-69
2022/03/05 06:23:38;;;;;;;23.70;10.50;;;-2.10;99.90;;;;;;5090459;28;20558;-69
2022/03/05 06:26:05;;;;;;;25.10;12.13;;;-2.10;99.90;;;;;;5090970;28;20194;-69
2022/03/05 06:28:32;;;;;;;25.43;12.17;;;-2.10;99.90;;;;;;5092478;28;20224;-68
2022/03/05 06:30:59;;;;;;;26.23;11.67;;;-2.10;99.90;;;;;;5087203;28;20201;-69
2022/03/05 06:33:26;;;;;;;25.57;11.53;;;-2.20;59.70;;;;;;5094508;28;20230;-69
2022/03/05 06:35:54;;;;;;;24.77;11.27;;;-2.00;82.40;;;;;;5086926;28;20550;-69
2022/03/05 06:38:22;;;;;;;24.27;11.50;;;-2.00;65.80;;;;;;5091058;28;20673;-68
2022/03/05 06:40:49;;;;;;;25.17;11.03;;;-1.90;62.80;;;;;;5095285;28;20541;-68
2022/03/05 06:43:16;;;;;;;26.83;11.93;;;-2.00;21.40;;;;;;5099324;28;20205;-69
2022/03/05 06:45:43;;;;;;;25.43;12.40;;;-1.80;78.00;;;;;;5093365;28;20246;-69
2022/03/05 06:48:10;;;;;;;25.50;11.67;;;-1.70;99.90;;;;;;5093084;28;20208;-69
2022/03/05 06:50:37;;;;;;;28.90;12.73;;;-1.60;99.90;;;;;;5098976;28;20511;-69
2022/03/05 06:53:04;;;;;;;30.13;14.07;;;-1.60;99.90;;;;;;5086552;28;20217;-69
2022/03/05 06:55:33;;;;;;;30.27;13.50;;;-1.30;99.90;;;;;;5095900;28;20228;-69
2022/03/05 06:58:00;;;;;;;28.63;14.17;;;-1.00;99.90;;;;;;5091260;28;20586;-69
2022/03/05 07:00:27;;;;;;;28.47;13.03;;;-0.90;99.90;;;;;;5086881;28;20671;-69
2022/03/05 07:02:54;;;;;;;29.00;12.67;;;-0.90;99.90;;;;;;5086957;28;20194;-69
2022/03/05 07:05:20;;;;;;;28.97;13.17;;;-0.70;99.90;;;;;;5078808;28;20214;-69
2022/03/05 07:07:47;;;;;;;27.77;14.13;;;-0.50;99.90;;;;;;5087525;28;20206;-69
2022/03/05 07:10:14;;;;;;;30.03;13.83;;;-0.40;99.90;;;;;;5088822;28;20209;-69
2022/03/05 07:12:42;;;;;;;29.70;13.77;;;-0.30;99.90;;;;;;5084809;28;20640;-69
2022/03/05 07:15:09;;;;;;;27.37;12.73;;;-0.40;99.90;;;;;;5086532;28;20220;-69
2022/03/05 07:17:36;;;;;;;31.00;12.87;;;-0.30;99.90;;;;;;5087899;28;20209;-69
2022/03/05 07:20:05;;;;;;;28.53;12.50;;;-0.20;99.90;;;;;;5088818;28;20652;-70
2022/03/05 07:22:32;;;;;;;26.83;11.63;;;-0.10;99.90;;;;;;5085440;28;20224;-69
2022/03/05 07:24:59;;;;;;;27.17;12.63;;;0.10;99.90;;;;;;5092740;28;20206;-69
2022/03/05 07:27:26;;;;;;;26.80;13.23;;;0.30;60.80;;;;;;5088087;28;20212;-69
2022/03/05 07:29:54;;;;;;;26.53;12.60;;;0.50;1.00;;;;;;5085999;28;20565;-69
2022/03/05 07:32:21;;;;;;;26.30;12.77;;;0.50;1.00;;;;;;5094341;28;20217;-69
2022/03/05 07:34:48;;;;;;;27.27;13.53;;;0.60;1.00;;;;;;5085035;28;20805;-69
2022/03/05 07:37:14;;;;;;;28.40;14.03;;;0.80;1.00;;;;;;5088920;28;20212;-69
2022/03/05 07:39:41;;;;;;;28.00;13.30;;;1.00;1.00;;;;;;5085231;28;20203;-69
2022/03/05 07:42:09;;;;;;;26.97;13.87;;;1.30;1.00;;;;;;5083937;28;20206;-69
2022/03/05 07:44:36;;;;;;;25.67;12.60;;;1.50;99.90;;;;;;5083941;28;20203;-69
2022/03/05 07:47:06;;;;;;;27.27;12.83;;;1.60;1.00;;;;;;5088071;28;20659;-69
2022/03/05 07:49:32;;;;;;;25.63;12.57;;;2.20;99.90;;;;;;5086150;28;20190;-69
2022/03/05 07:51:59;;;;;;;31.03;12.80;;;2.80;1.00;;;;;;5091779;28;20228;-69
2022/03/05 07:54:27;;;;;;;23.13;12.70;;;3.00;1.00;;;;;;5092339;28;20561;-69
2022/03/05 07:56:54;;;;;;;25.70;11.73;;;1.90;99.90;;;;;;5089039;28;20284;-69
2022/03/05 07:59:21;;;;;;;26.90;14.03;;;1.60;99.90;;;;;;5089136;28;20636;-68
2022/03/05 08:01:48;;;;;;;25.67;13.53;;;1.70;1.00;;;;;;5088203;28;20210;-68
2022/03/05 08:04:16;;;;;;;26.23;12.87;;;2.00;1.00;;;;;;5092509;28;20219;-68
2022/03/05 08:06:44;;;;;;;26.60;13.13;;;1.70;1.00;;;;;;5089191;28;20197;-73
2022/03/05 08:09:11;;;;;;;23.93;12.00;;;1.90;1.00;;;;;;5092281;28;20651;-68
2022/03/05 08:11:38;;;;;;;27.47;13.17;;;1.90;37.60;;;;;;5092004;28;20225;-68
2022/03/05 08:14:05;;;;;;;26.00;13.00;;;2.10;1.00;;;;;;5090887;28;20582;-68
2022/03/05 08:16:32;;;;;;;25.57;12.27;;;3.00;1.00;;;;;;5089386;28;20201;-68
2022/03/05 08:18:59;;;;;;;27.30;12.57;;;3.20;1.00;;;;;;5090500;28;20224;-68
2022/03/05 08:21:27;;;;;;;27.43;13.67;;;3.00;99.90;;;;;;5087280;28;20202;-68
2022/03/05 08:23:54;;;;;;;26.37;12.70;;;3.20;1.00;;;;;;5087223;28;20711;-68
2022/03/05 08:26:21;;;;;;;24.53;12.97;;;3.20;53.30;;;;;;5090602;28;20198;-68
2022/03/05 08:28:48;;;;;;;26.30;11.87;;;3.10;1.00;;;;;;5084400;28;20552;-69
2022/03/05 08:31:15;;;;;;;25.67;12.57;;;2.90;1.00;;;;;;5088780;28;20208;-69
2022/03/05 08:33:42;;;;;;;26.87;13.10;;;2.70;1.00;;;;;;5089158;28;20226;-69
2022/03/05 08:36:09;;;;;;;24.97;12.23;;;2.90;99.90;;;;;;5096946;28;20220;-69
2022/03/05 08:38:38;;;;;;;25.20;12.77;;;2.90;1.00;;;;;;5090672;28;20209;-69
2022/03/05 08:41:05;;;;;;;23.60;12.33;;;3.00;1.00;;;;;;5090539;28;20212;-69
2022/03/05 08:43:32;;;;;;;24.17;12.13;;;2.90;1.00;;;;;;5087716;28;20255;-69
2022/03/05 08:46:01;;;;;;;25.33;13.17;;;3.10;99.90;;;;;;5087274;28;20674;-69
2022/03/05 08:48:28;;;;;;;23.50;12.40;;;3.70;99.90;;;;;;5086133;28;20210;-69
2022/03/05 08:50:55;;;;;;;26.70;12.90;;;3.60;1.00;;;;;;5088794;28;20583;-69
2022/03/05 08:53:22;;;;;;;24.57;12.37;;;3.80;99.90;;;;;;5082578;28;20584;-69
2022/03/05 08:55:50;;;;;;;24.40;12.47;;;4.00;1.00;;;;;;5092498;28;20198;-69
2022/03/05 08:58:17;;;;;;;26.40;12.50;;;3.80;99.90;;;;;;5089030;28;20197;-69
2022/03/05 09:00:44;;;;;;;22.90;11.57;;;3.70;99.90;;;;;;5092496;28;20209;-69
2022/03/05 09:03:11;;;;;;;24.63;11.63;;;3.60;99.90;;;;;;5088103;28;20202;-69
2022/03/05 09:05:38;;;;;;;26.57;12.07;;;3.40;1.00;;;;;;5084286;28;20648;-69
2022/03/05 09:08:05;;;;;;;23.10;11.37;;;3.60;99.90;;;;;;5095016;28;20572;-69
2022/03/05 09:10:32;;;;;;;25.67;12.70;;;3.60;99.90;;;;;;5090204;28;20652;-69
2022/03/05 09:13:01;;;;;;;26.23;12.07;;;3.80;99.90;;;;;;5089272;28;20228;-69
2022/03/05 09:15:28;;;;;;;22.47;11.13;;;3.80;99.90;;;;;;5088294;28;20202;-69
2022/03/05 09:17:55;;;;;;;22.07;11.73;;;4.20;1.00;;;;;;5087898;28;20296;-69
2022/03/05 09:20:23;;;;;;;22.23;11.60;;;4.40;1.00;;;;;;5093335;28;20197;-69
2022/03/05 09:22:50;;;;;;;21.47;10.77;;;4.50;1.00;;;;;;5088223;28;20190;-69
2022/03/05 09:25:16;;;;;;;24.53;11.63;;;4.60;99.20;;;;;;5089727;28;20205;-69
2022/03/05 09:27:44;;;;;;;25.83;11.73;;;4.80;99.90;;;;;;5086567;28;20202;-69
2022/03/05 09:30:13;;;;;;;20.10;10.57;;;5.00;99.90;;;;;;5095358;28;20252;-71
2022/03/05 09:32:40;;;;;;;21.10;10.83;;;5.20;1.00;;;;;;5089596;28;20217;-72
2022/03/05 09:35:08;;;;;;;20.47;10.93;;;5.10;1.00;;;;;;5088072;28;20216;-71
2022/03/05 09:37:35;;;;;;;21.83;10.47;;;5.00;99.90;;;;;;5084079;28;20213;-71
2022/03/05 09:40:03;;;;;;;21.77;10.63;;;4.90;1.00;;;;;;5090782;28;20211;-70
2022/03/05 09:42:30;;;;;;;20.57;9.80;;;5.00;1.00;;;;;;5085309;28;20204;-72
2022/03/05 09:44:57;;;;;;;19.93;9.90;;;5.00;96.00;;;;;;5084781;28;20195;-72
2022/03/05 09:47:26;;;;;;;21.23;10.10;;;4.80;1.00;;;;;;5084855;28;20201;-72
2022/03/05 09:49:53;;;;;;;21.83;10.57;;;5.00;1.00;;;;;;5089865;28;20199;-72
2022/03/05 09:52:21;;;;;;;22.57;10.90;;;5.30;1.00;;;;;;5088089;28;20687;-71
2022/03/05 09:54:47;;;;;;;21.50;10.23;;;5.40;99.90;;;;;;5087765;28;20206;-71
2022/03/05 09:57:15;;;;;;;23.03;10.33;;;5.90;1.00;;;;;;5091286;28;20541;-71
2022/03/05 09:59:42;;;;;;;19.57;10.20;;;5.40;1.00;;;;;;5096462;28;20202;-71
2022/03/05 10:02:10;;;;;;;21.73;10.07;;;5.40;1.00;;;;;;5084551;28;20204;-72
2022/03/05 10:04:39;;;;;;;19.13;9.83;;;5.70;99.90;;;;;;5093316;28;20292;-71
2022/03/05 10:07:11;;;;;;;18.53;9.23;;;5.70;1.00;;;;;;5093365;28;20202;-72
2022/03/05 10:09:39;;;;;;;16.07;7.87;;;6.20;81.90;;;;;;5087928;28;20258;-72
2022/03/05 10:12:24;;;;;;;17.07;8.63;;;6.30;1.00;;;;;;5087570;28;20214;-71
2022/03/05 10:15:07;;;;;;;14.10;7.30;;;6.10;1.00;;;;;;5086030;28;20198;-71
2022/03/05 10:17:56;;;;;;;15.07;7.80;;;6.10;1.00;;;;;;5090950;28;20193;-71
2022/03/05 10:20:26;;;;;;;14.70;8.57;;;6.10;1.00;;;;;;5104143;28;20276;-72
2022/03/05 10:22:58;;;;;;;13.67;7.27;;;6.10;1.00;;;;;;5090095;28;20569;-71
2022/03/05 10:25:33;;;;;;;15.10;7.77;;;6.20;1.00;;;;;;5093861;28;20233;-72
2022/03/05 10:28:06;;;;;;;14.33;7.13;;;6.50;1.00;;;;;;5097300;28;20310;-71
2022/03/05 10:30:34;;;;;;;12.67;6.87;;;6.50;1.00;;;;;;5090587;28;20567;-71
2022/03/05 10:33:01;;;;;;;12.10;7.00;;;6.60;1.00;;;;;;5086974;28;20220;-72
2022/03/05 10:35:30;;;;;;;13.00;6.20;;;6.70;1.00;;;;;;5085381;28;20209;-72
2022/03/05 10:37:57;;;;;;;11.67;6.70;;;6.10;1.00;;;;;;5092170;28;20209;-72
2022/03/05 10:40:32;;;;;;;12.57;6.87;;;6.70;1.00;;;;;;5086978;28;20204;-72
2022/03/05 10:43:01;;;;;;;10.90;6.30;;;6.70;99.90;;;;;;5099402;28;20227;-72
2022/03/05 10:45:29;;;;;;;12.80;6.27;;;6.50;1.00;;;;;;5084088;28;20206;-72
2022/03/05 10:47:57;;;;;;;15.00;7.07;;;6.60;1.00;;;;;;5099519;28;20443;-72
2022/03/05 10:50:26;;;;;;;13.37;6.77;;;6.60;1.00;;;;;;5089841;28;20266;-71
2022/03/05 10:52:57;;;;;;;11.33;6.40;;;6.30;1.00;;;;;;5100377;28;20222;-72
2022/03/05 10:55:25;;;;;;;12.27;6.77;;;6.60;99.90;;;;;;5088802;28;20203;-71
2022/03/05 10:58:02;;;;;;;12.67;6.83;;;6.50;1.00;;;;;;5093903;28;20202;-72
2022/03/05 11:00:30;;;;;;;11.37;6.73;;;6.40;99.90;;;;;;5088942;28;20223;-71
2022/03/05 11:03:00;;;;;;;14.97;6.43;;;7.00;99.90;;;;;;5085247;28;20199;-72
2022/03/05 11:05:27;;;;;;;13.00;7.20;;;7.50;99.90;;;;;;5090878;28;20209;-72
2022/03/05 11:07:56;;;;;;;12.57;6.70;;;7.20;99.90;;;;;;5084051;28;20198;-72
2022/03/05 11:10:29;;;;;;;13.10;6.50;;;6.10;99.90;;;;;;5094251;28;20202;-72
2022/03/05 11:12:59;;;;;;;12.90;6.40;;;6.00;1.00;;;;;;5086552;28;20593;-72
2022/03/05 11:15:27;;;;;;;15.77;6.77;;;6.20;1.00;;;;;;5082058;28;20257;-71
2022/03/05 11:17:54;;;;;;;12.27;6.70;;;6.00;1.00;;;;;;5084591;28;20198;-72
2022/03/05 11:20:21;;;;;;;14.30;7.47;;;6.00;1.00;;;;;;5087309;28;20197;-72
2022/03/05 11:22:50;;;;;;;13.57;7.10;;;6.90;99.90;;;;;;5089801;28;20919;-72
2022/03/05 11:25:21;;;;;;;12.93;6.83;;;6.70;1.00;;;;;;5099323;28;20210;-71
2022/03/05 11:27:59;;;;;;;14.23;7.20;;;6.50;1.00;;;;;;5092730;28;20224;-71
2022/03/05 11:30:26;;;;;;;12.40;7.43;;;6.50;1.00;;;;;;5089707;28;20206;-72
2022/03/05 11:32:54;;;;;;;15.50;6.70;;;6.80;99.90;;;;;;5090213;28;20683;-72
2022/03/05 11:35:23;;;;;;;12.30;7.10;;;6.70;99.90;;;;;;5091664;28;20251;-72
2022/03/05 11:37:51;;;;;;;13.77;7.13;;;7.40;99.90;;;;;;5087512;28;20221;-73
2022/03/05 11:40:34;;;;;;;13.40;7.03;;;7.20;1.00;;;;;;5091755;28;20201;-72
2022/03/05 11:43:19;;;;;;;12.57;6.80;;;6.40;90.30;;;;;;5096835;28;20560;-71
2022/03/05 11:45:58;;;;;;;13.67;6.93;;;6.30;99.90;;;;;;5081530;28;20205;-72
2022/03/05 11:48:33;;;;;;;15.63;7.77;;;6.30;99.90;;;;;;5081366;28;20206;-72
2022/03/05 11:51:02;;;;;;;13.30;7.53;;;6.40;99.90;;;;;;5086506;28;20705;-72
2022/03/05 11:53:29;;;;;;;12.73;7.03;;;6.20;99.90;;;;;;5085195;28;20224;-72
2022/03/05 11:55:57;;;;;;;12.17;6.57;;;6.40;99.90;;;;;;5074144;28;20455;-71
2022/03/05 11:58:34;;;;;;;13.70;7.47;;;6.80;99.90;;;;;;5084713;28;20570;-72
2022/03/05 12:01:41;;;;;;;13.10;6.67;;;6.50;99.90;;;;;;5081060;28;20190;-71
2022/03/05 12:04:24;;;;;;;16.57;8.50;;;6.20;99.90;;;;;;5098222;28;20250;-72
2022/03/05 12:06:59;;;;;;;12.60;7.40;;;6.30;99.90;;;;;;5088821;28;20699;-72
2022/03/05 12:09:54;;;;;;;14.57;7.90;;;6.20;99.90;;;;;;5085784;28;20208;-71
2022/03/05 12:12:22;;;;;;;16.23;7.40;;;6.30;99.90;;;;;;5084531;28;20233;-72
2022/03/05 12:15:16;;;;;;;13.67;6.80;;;6.10;99.90;;;;;;5094756;28;20225;-71
2022/03/05 12:17:52;;;;;;;13.33;7.30;;;6.20;99.90;;;;;;5086588;28;20202;-71
2022/03/05 12:20:22;;;;;;;11.43;6.57;;;6.20;99.90;;;;;;5090662;28;20575;-72
2022/03/05 12:22:52;;;;;;;14.70;7.37;;;6.10;99.90;;;;;;5089078;28;20469;-71
2022/03/05 12:25:20;;;;;;;14.17;7.47;;;6.00;99.90;;;;;;5088213;28;20210;-72
2022/03/05 12:27:51;;;;;;;13.87;7.43;;;6.20;99.90;;;;;;5090403;28;20213;-72
2022/03/05 12:30:18;;;;;;;13.37;7.27;;;6.40;1.00;;;;;;5092018;28;20212;-72
2022/03/05 12:32:47;;;;;;;13.70;7.17;;;6.50;99.90;;;;;;5083189;28;20302;-72
2022/03/05 12:35:16;;;;;;;11.53;6.33;;;6.60;99.90;;;;;;5090802;28;20198;-71
2022/03/05 12:37:43;;;;;;;13.97;7.23;;;6.90;99.90;;;;;;5095116;28;20202;-72
2022/03/05 12:40:12;;;;;;;12.90;7.00;;;6.90;99.90;;;;;;5088862;28;20206;-72
2022/03/05 12:42:42;;;;;;;13.23;6.70;;;7.30;99.90;;;;;;5090424;28;20208;-71
2022/03/05 12:45:16;;;;;;;12.83;7.07;;;7.10;99.90;;;;;;5086394;28;20289;-72
2022/03/05 12:47:43;;;;;;;12.33;7.60;;;6.90;99.90;;;;;;5095464;28;20205;-72